• Join FlightAware (Why Join?)
  • Login
  • US Flag 
09:33AM EST


 

Airport Tracker/Info


-or-


 

Live Flight TrackerFlight Track Log ✈ AR130 ✈ 24-May-2012 ✈ CET2 - CYXH

Flight Track Log - Related Links

Times and Time Zones

All times are in EDT time to prevent confusion due to time zone crossing. See the AR130 flight status page for this flight to view local times or setup timezone preferences in your user account.

Time Position Orientation Groundspeed Altitude Reporting Facility
EDT Latitude Longitude Course Direction KTS MPH feet Rate Location/Type
07:40PM -19.7749 -159.7983 25° Northeast  Level FlightAware Approximate
07:41PM -19.7182 -159.7645 25° Northeast  Level Estimated
07:42PM 53.1698 -113.2903 21° North  Level FlightAware Approximate
07:43PM 53.1122 -113.2402 20° North  Level FlightAware Approximate
07:44PM 53.0546 -113.1903 18° North  Level FlightAware Approximate
07:45PM 52.9969 -113.1406 17° North  Level FlightAware Approximate
07:46PM 52.9393 -113.0909 16° North  Level FlightAware Approximate
07:47PM 52.8816 -113.0414 14° North  Level FlightAware Approximate
07:48PM 52.8239 -112.9920 13° North  Level FlightAware Approximate
07:49PM 54.7500 -112.2167 180° South 240 276 22,400  Level Edmonton Center
07:54PM 54.4000 -112.2167 173° South 260 299 24,900 360 Climbing Edmonton Center
07:55PM 54.3167 -112.2000 172° South 270 311 24,900  Level Edmonton Center
07:56PM 54.2500 -112.1833 173° South 270 311 24,900  Level Edmonton Center
07:57PM 54.1667 -112.1667 180° South 270 311 24,900  Level Edmonton Center
07:58PM 54.1000 -112.1667 187° South 270 311 24,900  Level Edmonton Center
07:59PM 54.0167 -112.1833 173° South 270 311 25,000  Climbing Edmonton Center
08:00PM 53.9333 -112.1667 172° South 270 311 25,000 -60 Level Edmonton Center
08:01PM 53.8667 -112.1500 173° South 270 311 24,900 -60 Descending Edmonton Center
08:02PM 53.7833 -112.1333 172° South 270 311 24,900  Level Edmonton Center
08:03PM 53.7167 -112.1167 187° South 270 311 24,900  Level Edmonton Center
08:04PM 53.6333 -112.1333 172° South 270 311 24,900  Level Edmonton Center
08:05PM 53.5667 -112.1167 180° South 270 311 25,000  Climbing Edmonton Center
08:06PM 53.4833 -112.1167 172° South 270 311 25,000  Level Edmonton Center
08:07PM 53.4167 -112.1000 187° South 270 311 25,000  Level Edmonton Center
08:08PM 53.3333 -112.1167 171° South 270 311 25,000  Level Edmonton Center
08:09PM 53.2667 -112.1000 173° South 270 311 25,100  Climbing Edmonton Center
08:10PM 53.1833 -112.0833 171° South 270 311 25,100  Level Edmonton Center
08:11PM 53.1167 -112.0667 173° South 270 311 25,100 -60 Level Edmonton Center
08:12PM 53.0333 -112.0500 189° South 270 311 25,000 -60 Descending Edmonton Center
08:13PM 52.9667 -112.0667 180° South 270 311 25,000  Level Edmonton Center
08:14PM 52.8833 -112.0667 173° South 270 311 25,000  Level Edmonton Center
08:15PM 52.8000 -112.0500 173° South 270 311 25,000  Level Edmonton Center
08:16PM 52.7167 -112.0333 171° South 270 311 25,000  Level Edmonton Center
08:17PM 52.6500 -112.0167 173° South 270 311 25,000  Level Edmonton Center
08:18PM 52.5667 -112.0000 189° South 270 311 25,000 -60 Level Edmonton Center
08:19PM 52.5000 -112.0167 180° South 270 311 24,900  Descending Edmonton Center
08:20PM 52.4167 -112.0167 171° South 270 311 25,000  Climbing Edmonton Center
08:21PM 52.3500 -112.0000 189° South 270 311 25,000 -60 Level Edmonton Center
08:22PM 52.2833 -112.0167 173° South 270 311 24,900 -60 Descending Edmonton Center
08:23PM 52.2000 -112.0000 171° South 270 311 24,900  Level Edmonton Center
08:24PM 52.1333 -111.9833 189° South 270 311 25,000  Climbing Edmonton Center
08:25PM 52.0667 -112.0000 180° South 270 311 24,900 -60 Descending Edmonton Center
08:26PM 51.9833 -112.0000 171° South 270 311 24,900  Level Edmonton Center
08:27PM 51.9167 -111.9833 173° South 260 299 25,000  Climbing Edmonton Center
08:28PM 51.8333 -111.9667 171° South 260 299 24,900 -60 Descending Edmonton Center
08:29PM 51.7667 -111.9500 180° South 260 299 24,900  Level Edmonton Center
08:30PM 51.7000 -111.9500 173° South 260 299 24,900  Level Edmonton Center
08:31PM 51.6167 -111.9333 171° South 260 299 24,900  Level Edmonton Center
08:32PM 51.5500 -111.9167 173° South 260 299 24,900  Level Edmonton Center
08:33PM 51.4667 -111.9000 187° South 260 299 24,900  Level Edmonton Center
08:34PM 51.3833 -111.9167 180° South 260 299 24,900  Level Edmonton Center
08:35PM 51.3167 -111.9167 171° South 260 299 24,900  Level Edmonton Center
08:36PM 51.2500 -111.9000 173° South 260 299 24,900  Level Edmonton Center
08:37PM 51.1667 -111.8833 189° South 260 299 25,000  Climbing Edmonton Center
08:38PM 51.1000 -111.9000 180° South 260 299 24,900 -60 Descending Edmonton Center
08:39PM 51.0333 -111.9000 173° South 260 299 24,900  Level Edmonton Center
08:40PM 50.9500 -111.8833 171° South 260 299 24,900  Level Edmonton Center
08:41PM 50.8833 -111.8667 173° South 260 299 24,900  Level Edmonton Center
08:42PM 50.8000 -111.8500 180° South 260 299 24,900  Level Edmonton Center
08:43PM 50.7333 -111.8500 189° South 260 299 24,900  Level Edmonton Center
08:44PM 50.6667 -111.8667 173° South 260 299 24,900 -300 Level Edmonton Center
08:45PM 50.5833 -111.8500 173° South 260 299 24,300 -900 Descending Edmonton Center
08:46PM 50.5000 -111.8333 180° South 280 322 23,200 -1,140 Descending Edmonton Center
08:47PM 50.4333 -111.8333 173° South 280 322 22,100 -1,140 Descending Edmonton Center
08:48PM 50.3500 -111.8167 162° South 280 322 21,000 -1,140 Descending Edmonton Center
08:49PM 50.2833 -111.7833 128° Southeast 270 311 19,900 -1,200 Descending Edmonton Center
08:50PM 50.2333 -111.6833 122° Southeast 270 311 18,700 -1,560 Descending Edmonton Center
08:51PM 50.2000 -111.6000 133° Southeast 260 299 16,800 -1,860 Descending Edmonton Center
08:52PM 50.1500 -111.5167 124° Southeast 270 311 15,000 -1,980 Descending Edmonton Center
08:53PM 50.1000 -111.4000 133° Southeast 270 311 12,900 -2,100 Descending Edmonton Center
08:54PM 50.0500 -111.3167 117° Southeast 260 299 10,800 -1,980 Descending Edmonton Center
08:55PM 50.0167 -111.2167 107° East 260 299 9,000 -1,800 Descending Edmonton Center
08:56PM 50.0000 -111.1333 114° Southeast 260 299 7,300 -1,800 Descending Edmonton Center
08:57PM 49.9667 -111.0167 90° East 250 288 5,500 -1,500 Descending Edmonton Center
08:58PM 49.9667 -110.9167 122° Southeast 220 253 4,400 -900 Descending Edmonton Center
08:59PM 49.9333 -110.8333 63° Northeast 200 230 3,800 -600 Descending Edmonton Center
09:00PM 49.9500 -110.7833 63° Northeast 150 173 3,200 -480 Descending Edmonton Center
09:01PM 49.9667 -110.7333 63° Northeast 140 161 2,900 -300 Descending Edmonton Center